createdAt,value
2023-06-30T00:02:48.530Z,19.80
2023-06-30T00:05:37.704Z,19.80
2023-06-30T00:08:28.473Z,19.70
2023-06-30T00:11:24.986Z,19.80
2023-06-30T00:14:13.894Z,19.90
2023-06-30T00:17:02.705Z,19.80
2023-06-30T00:19:52.315Z,19.70
2023-06-30T00:22:41.418Z,19.60
2023-06-30T00:25:31.725Z,19.60
2023-06-30T00:28:21.059Z,19.60
2023-06-30T00:31:10.195Z,19.60
2023-06-30T00:33:59.392Z,19.60
2023-06-30T00:36:48.113Z,19.60
2023-06-30T00:39:37.058Z,19.50
2023-06-30T00:42:27.565Z,19.50
2023-06-30T00:45:16.837Z,19.50
2023-06-30T00:48:06.079Z,19.50
2023-06-30T00:50:55.588Z,19.60
2023-06-30T00:53:44.518Z,19.50
2023-06-30T00:56:33.537Z,19.50
2023-06-30T00:59:23.830Z,19.40
2023-06-30T01:02:16.260Z,19.40
2023-06-30T01:05:12.111Z,19.40
2023-06-30T01:08:09.964Z,19.30
2023-06-30T01:10:59.907Z,19.30
2023-06-30T01:13:50.735Z,19.30
2023-06-30T01:16:44.241Z,19.30
2023-06-30T01:19:40.113Z,19.30
2023-06-30T01:22:49.564Z,19.20
2023-06-30T01:25:38.428Z,19.20
2023-06-30T01:28:30.250Z,19.20
2023-06-30T01:31:19.842Z,19.20
2023-06-30T01:34:10.163Z,19.10
2023-06-30T01:36:59.085Z,19.10
2023-06-30T01:39:50.543Z,19.10
2023-06-30T01:42:40.686Z,19.10
2023-06-30T01:45:31.154Z,19.00
2023-06-30T01:48:20.737Z,19.00
2023-06-30T01:51:16.628Z,19.00
2023-06-30T01:54:06.140Z,19.00
2023-06-30T01:56:54.945Z,18.90
2023-06-30T01:59:43.774Z,18.80
2023-06-30T02:02:32.547Z,18.80
2023-06-30T02:05:21.734Z,18.80
2023-06-30T02:08:11.992Z,18.60
2023-06-30T02:11:01.138Z,18.60
2023-06-30T02:13:53.033Z,18.60
2023-06-30T02:16:41.919Z,18.50
2023-06-30T02:19:31.298Z,18.60
2023-06-30T02:22:20.087Z,18.60
2023-06-30T02:25:10.462Z,18.60
2023-06-30T02:27:59.120Z,18.60
2023-06-30T02:30:48.133Z,18.60
2023-06-30T02:33:37.130Z,18.60
2023-06-30T02:36:26.046Z,18.50
2023-06-30T02:39:14.871Z,18.50
2023-06-30T02:42:05.555Z,18.50
2023-06-30T02:44:54.681Z,18.50
2023-06-30T02:47:43.936Z,18.50
2023-06-30T02:50:34.250Z,18.40
2023-06-30T02:53:23.741Z,18.40
2023-06-30T02:56:12.817Z,18.40
2023-06-30T02:59:03.587Z,18.50
2023-06-30T03:01:53.041Z,18.60
2023-06-30T03:04:41.973Z,18.60
2023-06-30T03:07:31.379Z,18.60
2023-06-30T03:10:20.571Z,18.50
2023-06-30T03:13:09.779Z,18.50
2023-06-30T03:16:00.494Z,18.50
2023-06-30T03:18:54.386Z,18.50
2023-06-30T03:21:43.468Z,18.40
2023-06-30T03:24:32.391Z,18.40
2023-06-30T03:27:22.386Z,18.50
2023-06-30T03:30:12.358Z,18.60
2023-06-30T03:33:07.531Z,18.50
2023-06-30T03:35:56.418Z,18.60
2023-06-30T03:38:46.400Z,18.70
2023-06-30T03:41:36.258Z,18.70
2023-06-30T03:44:25.016Z,18.60
2023-06-30T03:47:13.994Z,18.60
2023-06-30T03:50:04.790Z,18.60
2023-06-30T03:52:53.622Z,18.60
2023-06-30T03:55:43.129Z,18.60
2023-06-30T03:58:32.682Z,18.80
2023-06-30T04:01:22.716Z,18.90
2023-06-30T04:04:11.854Z,19.00
2023-06-30T04:07:02.693Z,19.00
2023-06-30T04:09:51.489Z,19.10
2023-06-30T04:12:40.274Z,19.10
2023-06-30T04:15:29.111Z,19.20
2023-06-30T04:18:18.015Z,19.20
2023-06-30T04:21:06.891Z,19.30
2023-06-30T04:23:57.322Z,19.40
2023-06-30T04:26:46.267Z,19.50
2023-06-30T04:29:35.439Z,19.60
2023-06-30T04:32:24.246Z,19.70
2023-06-30T04:35:13.145Z,19.70
2023-06-30T04:38:02.221Z,19.90
2023-06-30T04:40:52.821Z,20.00
2023-06-30T04:43:42.672Z,20.00
2023-06-30T04:46:31.463Z,19.80
2023-06-30T04:49:20.980Z,20.10
2023-06-30T04:52:10.363Z,20.20
2023-06-30T04:54:59.474Z,20.40
2023-06-30T04:57:50.601Z,20.40
2023-06-30T05:00:39.702Z,20.50
2023-06-30T05:03:28.715Z,20.60
2023-06-30T05:06:17.826Z,20.70
2023-06-30T05:09:06.564Z,20.80
2023-06-30T05:11:55.454Z,20.80
2023-06-30T05:14:45.607Z,20.90
2023-06-30T05:17:34.618Z,20.80
2023-06-30T05:20:23.888Z,20.90
2023-06-30T05:23:12.738Z,21.00
2023-06-30T05:26:01.632Z,21.10
2023-06-30T05:29:04.088Z,21.20
2023-06-30T05:31:55.498Z,21.30
2023-06-30T05:34:44.928Z,21.50
2023-06-30T05:37:33.989Z,21.50
2023-06-30T05:40:22.891Z,21.70
2023-06-30T05:43:12.048Z,21.90
2023-06-30T05:46:01.078Z,22.00
2023-06-30T05:48:52.003Z,22.00
2023-06-30T05:51:41.065Z,22.10
2023-06-30T05:54:29.919Z,22.10
2023-06-30T05:57:18.705Z,22.10
2023-06-30T06:00:09.156Z,22.10
2023-06-30T06:03:02.949Z,22.30
2023-06-30T06:05:53.879Z,22.30
2023-06-30T06:08:45.162Z,22.50
2023-06-30T06:11:34.120Z,22.40
2023-06-30T06:14:22.922Z,22.50
2023-06-30T06:17:12.090Z,22.60
2023-06-30T06:20:01.051Z,22.70
2023-06-30T06:22:51.113Z,23.30
2023-06-30T06:25:45.355Z,23.20
2023-06-30T06:28:34.867Z,23.20
2023-06-30T06:31:26.046Z,23.20
2023-06-30T06:34:14.988Z,23.30
2023-06-30T06:37:04.299Z,23.40
2023-06-30T06:39:54.504Z,23.70
2023-06-30T06:42:43.335Z,24.70
2023-06-30T06:45:32.291Z,25.00
2023-06-30T06:48:22.911Z,25.40
2023-06-30T06:51:12.008Z,25.30
2023-06-30T06:54:01.158Z,25.40
2023-06-30T06:56:53.037Z,25.30
2023-06-30T06:59:41.744Z,25.00
2023-06-30T07:02:31.087Z,24.80
2023-06-30T07:05:20.304Z,24.80
2023-06-30T07:08:09.705Z,24.70
2023-06-30T07:10:58.754Z,25.10
2023-06-30T07:13:49.485Z,25.40
2023-06-30T07:16:38.258Z,26.80
2023-06-30T07:19:27.153Z,26.90
2023-06-30T07:22:16.357Z,26.50
2023-06-30T07:25:07.777Z,26.70
2023-06-30T07:27:58.085Z,26.70
2023-06-30T07:30:49.668Z,26.80
2023-06-30T07:33:38.477Z,27.10
2023-06-30T07:36:27.229Z,27.10
2023-06-30T07:39:16.439Z,27.00
2023-06-30T07:42:05.933Z,27.10
2023-06-30T07:44:56.379Z,27.30
2023-06-30T07:47:49.734Z,26.90
2023-06-30T07:50:39.283Z,26.80
2023-06-30T07:53:29.269Z,26.80
2023-06-30T07:56:17.983Z,26.60
2023-06-30T07:59:07.105Z,26.90
2023-06-30T08:01:55.987Z,27.00
2023-06-30T08:04:46.368Z,27.20
2023-06-30T08:07:49.157Z,27.50
2023-06-30T08:10:40.851Z,27.80
2023-06-30T08:13:31.277Z,27.40
2023-06-30T08:16:20.307Z,28.00
2023-06-30T08:19:09.181Z,28.40
2023-06-30T08:22:19.894Z,29.20
2023-06-30T08:25:09.393Z,29.60
2023-06-30T08:27:58.775Z,29.90
2023-06-30T08:30:47.948Z,30.40
2023-06-30T08:33:40.524Z,30.60
2023-06-30T08:36:29.956Z,30.80
2023-06-30T08:39:20.792Z,30.80
2023-06-30T08:42:13.767Z,31.20
2023-06-30T08:45:04.469Z,31.30
2023-06-30T08:47:54.738Z,31.10
2023-06-30T08:50:45.278Z,31.60
2023-06-30T08:53:34.764Z,32.00
2023-06-30T08:56:27.674Z,31.50
2023-06-30T08:59:16.554Z,31.00
2023-06-30T09:02:05.744Z,31.00
2023-06-30T09:04:55.336Z,31.50
2023-06-30T09:07:49.579Z,31.70
2023-06-30T09:10:40.282Z,32.10
2023-06-30T09:13:31.007Z,32.40
2023-06-30T09:16:20.498Z,32.60
2023-06-30T09:19:09.557Z,32.40
2023-06-30T09:21:59.122Z,32.80
2023-06-30T09:24:48.083Z,32.90
2023-06-30T09:27:37.119Z,33.20
2023-06-30T09:30:35.032Z,33.20
2023-06-30T09:33:25.059Z,32.70
2023-06-30T09:36:19.005Z,33.40
2023-06-30T09:39:10.041Z,33.90
2023-06-30T09:41:58.831Z,32.60
2023-06-30T09:44:49.910Z,31.90
2023-06-30T09:47:40.285Z,30.50
2023-06-30T09:50:32.202Z,29.70
2023-06-30T09:53:21.549Z,29.40
2023-06-30T09:56:11.480Z,29.30
2023-06-30T09:59:00.688Z,32.00
2023-06-30T10:01:54.180Z,33.00
2023-06-30T10:04:48.392Z,33.90
2023-06-30T10:07:37.512Z,35.50
2023-06-30T10:10:27.130Z,36.20
2023-06-30T10:13:17.773Z,36.80
2023-06-30T10:16:08.893Z,37.00
2023-06-30T10:19:01.509Z,34.80
2023-06-30T10:21:55.696Z,32.60
2023-06-30T10:24:48.633Z,31.40
2023-06-30T10:27:38.545Z,34.20
2023-06-30T10:30:27.806Z,33.80
2023-06-30T10:33:16.748Z,36.50
2023-06-30T10:36:07.453Z,38.70
2023-06-30T10:38:58.009Z,40.30
2023-06-30T10:41:51.309Z,41.50
2023-06-30T10:44:40.955Z,42.00
2023-06-30T10:47:30.387Z,37.10
2023-06-30T10:50:20.292Z,37.20
2023-06-30T10:53:09.246Z,40.40
2023-06-30T10:55:59.541Z,41.80
2023-06-30T10:58:48.782Z,43.10
2023-06-30T11:01:39.794Z,43.40
2023-06-30T11:04:39.109Z,44.20
2023-06-30T11:07:29.441Z,44.00
2023-06-30T11:10:36.881Z,40.20
2023-06-30T11:13:39.308Z,36.90
2023-06-30T11:16:31.091Z,34.60
2023-06-30T11:19:25.858Z,36.40
2023-06-30T11:22:24.205Z,34.20
2023-06-30T11:25:13.303Z,33.00
2023-06-30T11:28:05.900Z,32.30
2023-06-30T11:30:56.155Z,31.60
2023-06-30T11:33:46.670Z,31.20
2023-06-30T11:36:35.783Z,36.50
2023-06-30T11:39:24.761Z,40.40
2023-06-30T11:42:14.773Z,39.10
2023-06-30T11:45:03.553Z,36.40
2023-06-30T11:47:55.549Z,39.60
2023-06-30T11:50:44.762Z,42.50
2023-06-30T11:53:34.428Z,40.00
2023-06-30T11:56:23.971Z,36.70
2023-06-30T11:59:13.069Z,38.70
2023-06-30T12:02:03.074Z,42.50
2023-06-30T12:04:53.472Z,45.10
2023-06-30T12:07:43.979Z,46.60
2023-06-30T12:10:40.215Z,45.70
2023-06-30T12:13:30.323Z,45.30
2023-06-30T12:16:20.387Z,44.60
2023-06-30T12:19:10.043Z,44.90
2023-06-30T12:22:01.378Z,47.50
2023-06-30T12:24:56.738Z,48.50
2023-06-30T12:27:45.801Z,49.80
2023-06-30T12:30:35.043Z,50.30
2023-06-30T12:33:24.752Z,49.80
2023-06-30T12:36:13.538Z,49.30
2023-06-30T12:39:04.262Z,47.90
2023-06-30T12:41:53.170Z,48.10
2023-06-30T12:44:41.990Z,45.60
2023-06-30T12:47:31.144Z,46.40
2023-06-30T12:50:20.903Z,45.90
2023-06-30T12:53:09.757Z,40.30
2023-06-30T12:55:59.981Z,37.50
2023-06-30T12:58:48.902Z,35.50
2023-06-30T13:01:37.800Z,34.10
2023-06-30T13:04:28.398Z,33.10
2023-06-30T13:07:17.887Z,32.40
2023-06-30T13:10:07.904Z,31.90
2023-06-30T13:12:59.823Z,31.40
2023-06-30T13:15:49.161Z,30.90
2023-06-30T13:18:38.198Z,30.50
2023-06-30T13:21:27.048Z,30.30
2023-06-30T13:24:15.846Z,29.90
2023-06-30T13:27:04.696Z,29.90
2023-06-30T13:29:56.385Z,29.70
2023-06-30T13:32:45.166Z,29.40
2023-06-30T13:35:34.948Z,29.20
2023-06-30T13:38:24.030Z,28.90
2023-06-30T13:41:12.831Z,28.80
2023-06-30T13:44:01.588Z,28.90
2023-06-30T13:46:51.689Z,28.80
2023-06-30T13:49:40.454Z,28.70
2023-06-30T13:52:29.376Z,28.70
2023-06-30T13:55:18.211Z,28.50
2023-06-30T13:58:07.120Z,28.50
2023-06-30T14:00:55.819Z,28.40
2023-06-30T14:03:49.941Z,28.40
2023-06-30T14:06:39.472Z,28.40
2023-06-30T14:09:28.643Z,28.40
2023-06-30T14:12:19.293Z,28.50
2023-06-30T14:15:09.494Z,28.60
2023-06-30T14:17:58.482Z,28.60
2023-06-30T14:20:49.594Z,28.60
2023-06-30T14:23:38.767Z,28.70
2023-06-30T14:26:28.061Z,28.70
2023-06-30T14:29:17.223Z,28.80
2023-06-30T14:32:06.986Z,28.80
2023-06-30T14:34:56.322Z,28.80
2023-06-30T14:37:46.760Z,28.80
2023-06-30T14:40:35.670Z,28.70
2023-06-30T14:43:25.338Z,28.80
2023-06-30T14:46:14.176Z,28.70
2023-06-30T14:49:04.109Z,28.70
2023-06-30T14:51:53.345Z,28.70
2023-06-30T14:54:43.484Z,28.80
2023-06-30T14:57:32.521Z,28.80
2023-06-30T15:00:21.340Z,28.80
2023-06-30T15:03:10.182Z,28.80
2023-06-30T15:06:02.696Z,28.80
2023-06-30T15:08:51.410Z,28.80
2023-06-30T15:11:41.532Z,28.70
2023-06-30T15:14:30.488Z,28.70
2023-06-30T15:17:20.183Z,28.60
2023-06-30T15:20:09.961Z,28.50
2023-06-30T15:22:58.919Z,28.40
2023-06-30T15:25:48.255Z,28.40
2023-06-30T15:28:39.281Z,28.40
2023-06-30T15:34:25.086Z,28.40
2023-06-30T15:37:14.567Z,28.30
2023-06-30T15:40:04.223Z,28.30
2023-06-30T15:42:52.990Z,28.20
2023-06-30T15:45:43.474Z,28.20
2023-06-30T15:48:32.307Z,28.00
2023-06-30T15:51:21.502Z,28.00
2023-06-30T15:54:10.740Z,27.90
2023-06-30T15:56:59.585Z,27.80
2023-06-30T15:59:48.364Z,27.70
2023-06-30T16:02:39.330Z,27.80
2023-06-30T16:05:28.457Z,27.70
2023-06-30T16:08:17.272Z,27.80
2023-06-30T16:11:05.941Z,27.80
2023-06-30T16:13:54.731Z,27.80
2023-06-30T16:16:43.664Z,27.80
2023-06-30T16:19:34.229Z,27.60
2023-06-30T16:22:23.000Z,27.50
2023-06-30T16:25:12.138Z,27.40
2023-06-30T16:28:01.073Z,27.30
2023-06-30T16:30:49.953Z,27.20
2023-06-30T16:33:38.756Z,27.20
2023-06-30T16:36:32.802Z,27.20
2023-06-30T16:39:21.525Z,27.20
2023-06-30T16:42:10.513Z,27.20
2023-06-30T16:44:59.403Z,27.20
2023-06-30T16:47:48.387Z,27.10
2023-06-30T16:50:37.323Z,27.10
2023-06-30T16:53:28.127Z,27.10
2023-06-30T16:56:16.971Z,27.00
2023-06-30T16:59:06.126Z,26.80
2023-06-30T17:01:56.312Z,26.80
2023-06-30T17:04:45.954Z,26.80
2023-06-30T17:07:35.005Z,26.70
2023-06-30T17:10:25.533Z,26.70
2023-06-30T17:13:14.365Z,26.60
2023-06-30T17:16:03.628Z,26.70
2023-06-30T17:18:52.688Z,26.60
2023-06-30T17:21:41.821Z,26.60
2023-06-30T17:24:30.951Z,26.60
2023-06-30T17:27:21.586Z,26.50
2023-06-30T17:30:12.082Z,26.50
2023-06-30T17:33:01.218Z,26.50
2023-06-30T17:35:50.077Z,26.30
2023-06-30T17:38:38.790Z,26.30
2023-06-30T17:41:27.863Z,26.30
2023-06-30T17:44:17.958Z,26.20
2023-06-30T17:47:07.457Z,26.20
2023-06-30T17:49:56.241Z,26.20
2023-06-30T17:52:45.265Z,26.00
2023-06-30T17:55:34.320Z,25.90
2023-06-30T17:58:23.140Z,26.00
2023-06-30T18:01:13.655Z,25.90
2023-06-30T18:04:02.466Z,25.80
2023-06-30T18:07:03.878Z,25.80
2023-06-30T18:09:52.747Z,25.70
2023-06-30T18:12:42.186Z,25.70
2023-06-30T18:15:32.348Z,25.70
2023-06-30T18:18:22.519Z,25.60
2023-06-30T18:21:13.077Z,25.50
2023-06-30T18:24:02.121Z,25.60
2023-06-30T18:26:51.623Z,25.60
2023-06-30T18:29:40.701Z,25.50
2023-06-30T18:32:29.820Z,25.40
2023-06-30T18:35:20.018Z,25.50
2023-06-30T18:38:08.851Z,25.40
2023-06-30T18:40:57.803Z,25.50
2023-06-30T18:43:46.564Z,25.40
2023-06-30T18:46:36.224Z,25.40
2023-06-30T18:49:25.833Z,25.30
2023-06-30T18:52:16.249Z,25.30
2023-06-30T18:55:05.398Z,25.30
2023-06-30T18:57:54.180Z,25.30
2023-06-30T19:00:43.696Z,25.20
2023-06-30T19:03:32.753Z,25.20
2023-06-30T19:06:22.105Z,25.20
2023-06-30T19:09:13.089Z,25.20
2023-06-30T19:12:02.090Z,25.20
2023-06-30T19:14:50.937Z,25.10
2023-06-30T19:17:39.882Z,25.20
2023-06-30T19:20:29.309Z,25.10
2023-06-30T19:23:19.314Z,25.00
2023-06-30T19:26:12.848Z,25.00
2023-06-30T19:29:02.036Z,25.00
2023-06-30T19:31:50.694Z,25.00
2023-06-30T19:34:39.842Z,25.00
2023-06-30T19:37:28.548Z,25.00
2023-06-30T19:40:18.046Z,24.90
2023-06-30T19:43:08.138Z,24.90
2023-06-30T19:45:56.950Z,24.90
2023-06-30T19:48:45.676Z,24.80
2023-06-30T19:51:34.454Z,24.80
2023-06-30T19:54:23.201Z,24.70
2023-06-30T19:57:11.949Z,24.60
2023-06-30T20:00:02.677Z,24.60
2023-06-30T20:03:01.537Z,24.60
2023-06-30T20:05:50.576Z,24.60
2023-06-30T20:08:39.396Z,24.50
2023-06-30T20:11:28.162Z,24.50
2023-06-30T20:14:16.981Z,24.40
2023-06-30T20:17:09.062Z,24.30
2023-06-30T20:19:58.093Z,24.10
2023-06-30T20:22:47.967Z,24.00
2023-06-30T20:25:36.912Z,23.90
2023-06-30T20:28:25.897Z,23.80
2023-06-30T20:31:15.407Z,23.70
2023-06-30T20:34:05.884Z,23.70
2023-06-30T20:36:54.717Z,23.60
2023-06-30T20:39:43.694Z,23.50
2023-06-30T20:42:32.852Z,23.50
2023-06-30T20:45:21.749Z,23.40
2023-06-30T20:48:10.813Z,23.40
2023-06-30T20:51:01.227Z,23.40
2023-06-30T20:53:50.098Z,23.30
2023-06-30T20:56:39.067Z,23.40
2023-06-30T20:59:28.640Z,23.40
2023-06-30T21:02:17.704Z,23.40
2023-06-30T21:05:07.267Z,23.30
2023-06-30T21:07:57.474Z,23.30
2023-06-30T21:10:46.554Z,23.30
2023-06-30T21:13:35.582Z,23.40
2023-06-30T21:16:24.517Z,23.30
2023-06-30T21:19:14.027Z,23.30
2023-06-30T21:22:03.286Z,23.20
2023-06-30T21:24:53.596Z,23.10
2023-06-30T21:27:42.325Z,23.20
2023-06-30T21:30:31.225Z,23.00
2023-06-30T21:33:20.016Z,22.90
2023-06-30T21:36:08.870Z,22.70
2023-06-30T21:38:57.754Z,22.70
2023-06-30T21:41:48.347Z,22.60
2023-06-30T21:44:37.085Z,22.50
2023-06-30T21:47:26.249Z,22.30
2023-06-30T21:50:14.979Z,22.20
2023-06-30T21:53:04.354Z,22.30
2023-06-30T21:55:53.588Z,22.20
2023-06-30T21:58:43.767Z,22.20
2023-06-30T22:01:40.661Z,22.10
2023-06-30T22:04:30.385Z,22.00
2023-06-30T22:07:19.743Z,22.00
2023-06-30T22:10:09.934Z,21.90
2023-06-30T22:12:58.701Z,21.80
2023-06-30T22:15:49.211Z,21.60
2023-06-30T22:18:38.007Z,21.40
2023-06-30T22:21:27.088Z,21.10
2023-06-30T22:24:15.845Z,20.90
2023-06-30T22:27:04.866Z,21.10
2023-06-30T22:29:53.622Z,21.20
2023-06-30T22:32:43.893Z,21.10
2023-06-30T22:35:32.701Z,21.10
2023-06-30T22:38:21.382Z,21.00
2023-06-30T22:41:10.105Z,21.10
2023-06-30T22:43:59.284Z,21.10
2023-06-30T22:46:48.270Z,21.00
2023-06-30T22:49:38.926Z,20.90
2023-06-30T22:52:27.763Z,20.80
2023-06-30T22:55:16.557Z,20.70
2023-06-30T22:58:05.510Z,20.80
2023-06-30T23:00:54.404Z,20.90
2023-06-30T23:03:43.191Z,20.90
2023-06-30T23:06:33.698Z,20.80
2023-06-30T23:09:22.962Z,20.70
2023-06-30T23:12:11.690Z,20.70
2023-06-30T23:15:00.591Z,20.80
2023-06-30T23:17:49.923Z,20.70
2023-06-30T23:20:38.886Z,20.60
2023-06-30T23:23:29.378Z,20.60
2023-06-30T23:26:23.028Z,20.70
2023-06-30T23:29:11.863Z,20.60
2023-06-30T23:32:06.899Z,20.60
2023-06-30T23:34:55.730Z,20.60
2023-06-30T23:37:45.233Z,20.70
2023-06-30T23:40:35.798Z,20.80
2023-06-30T23:43:24.806Z,20.80
2023-06-30T23:46:19.468Z,20.70
2023-06-30T23:49:08.469Z,20.70
2023-06-30T23:51:57.415Z,20.60
2023-06-30T23:54:46.121Z,20.60
2023-06-30T23:57:36.226Z,20.80
